HDN - Yampa Valley

Pirep is a free, collaborative database of all public and private airports located within the United States. All pilots are welcome to contribute, edit, and improve any airport they have local knowledge about, no registration required.
Are you familiar with this airport? Help out other pilots by adding your local knowledge.
Uploaded photos will be licensed under a CC BY-SA 4.0 license. Please only upload photos you have the rights to use.
Tags
Public
Undocu­mented
METAR / TAF
Webcam
Edit Tags
Food
Camping
Lodging
Car Rental
Bicycles
Swimming
Golfing
Fishing
Hot Springs
Museum
Flying Clubs
Airpark
Upcoming Events
No upcoming events. Is anything happening here soon?
*
*
*

Where exactly on/near the airport is this event taking place?

Is there a webpage with more information for this event?

Who should be contacted for more information?

What is this event all about?

Repeat every
Description
Transient Parking
Fuel Location
Landing & Tie-down Fees
Crew Car Availability
Flying Clubs
WiFi Access
Airport Statistics
Location: Hayden, CO
Elevation: 6,606ft
Sectional: Cheyenne
Fuel: 100LL, A (prices)
Runway 10/28: 10,000ft
Access: Open to the public
Current Weather — VFR
  • Weather data is strictly informational and not for flight planning purposes.
  • METAR
    2024-04-22 06:56:00 MDT
    Ceiling Wind Temperature Dewpoint Weather Visbility
    10,000ft 350° @ 3kt 37°F 28°F N/A 10SM
    Clouds: Broken @ 10,000ft, Broken @ 12,000ft
    Raw: KHDN 221256Z AUTO 35003KT 10SM BKN100 BKN120 03/M02 A3005 RMK AO2 SLP138 T00331017
  • TAF
    2024-04-22 06:00:00 MDT – 2024-04-22 11:00:00 MDT
    Ceiling Wind Weather Visbility
    11,000ft 80° @ 6kt N/A 6SM
    Clouds: Broken @ 11,000ft
    Raw: KHDN 221120Z 2212/2312 08006KT P6SM BKN110 FM221700 27007KT P6SM SCT150 BKN200 FM221830 27014G24KT P6SM FEW080 SCT200 FM222200 27022G32KT P6SM FEW100 SCT200 FM230300 30007KT P6SM FEW100 SCT250 FM230600 17005KT P6SM VCSH FEW080 BKN250
  • TAF
    2024-04-22 11:00:00 MDT – 2024-04-22 12:30:00 MDT
    Ceiling Wind Weather Visbility
    20,000ft 270° @ 7kt N/A 6SM
    Clouds: Scattered @ 15,000ft, Broken @ 20,000ft
    Raw: KHDN 221120Z 2212/2312 08006KT P6SM BKN110 FM221700 27007KT P6SM SCT150 BKN200 FM221830 27014G24KT P6SM FEW080 SCT200 FM222200 27022G32KT P6SM FEW100 SCT200 FM230300 30007KT P6SM FEW100 SCT250 FM230600 17005KT P6SM VCSH FEW080 BKN250
  • TAF
    2024-04-22 12:30:00 MDT – 2024-04-22 16:00:00 MDT
    Ceiling Wind Weather Visbility
    Sky clear 270° @ 14kt, gusts 24kt N/A 6SM
    Clouds: Few @ 8,000ft, Scattered @ 20,000ft
    Raw: KHDN 221120Z 2212/2312 08006KT P6SM BKN110 FM221700 27007KT P6SM SCT150 BKN200 FM221830 27014G24KT P6SM FEW080 SCT200 FM222200 27022G32KT P6SM FEW100 SCT200 FM230300 30007KT P6SM FEW100 SCT250 FM230600 17005KT P6SM VCSH FEW080 BKN250
  • TAF
    2024-04-22 16:00:00 MDT – 2024-04-22 21:00:00 MDT
    Ceiling Wind Weather Visbility
    Sky clear 270° @ 22kt, gusts 32kt N/A 6SM
    Clouds: Few @ 10,000ft, Scattered @ 20,000ft
    Raw: KHDN 221120Z 2212/2312 08006KT P6SM BKN110 FM221700 27007KT P6SM SCT150 BKN200 FM221830 27014G24KT P6SM FEW080 SCT200 FM222200 27022G32KT P6SM FEW100 SCT200 FM230300 30007KT P6SM FEW100 SCT250 FM230600 17005KT P6SM VCSH FEW080 BKN250
  • TAF
    2024-04-22 21:00:00 MDT – 2024-04-23 00:00:00 MDT
    Ceiling Wind Weather Visbility
    Sky clear 300° @ 7kt N/A 6SM
    Clouds: Few @ 10,000ft, Scattered @ 25,000ft
    Raw: KHDN 221120Z 2212/2312 08006KT P6SM BKN110 FM221700 27007KT P6SM SCT150 BKN200 FM221830 27014G24KT P6SM FEW080 SCT200 FM222200 27022G32KT P6SM FEW100 SCT200 FM230300 30007KT P6SM FEW100 SCT250 FM230600 17005KT P6SM VCSH FEW080 BKN250
  • TAF
    2024-04-23 00:00:00 MDT – 2024-04-23 06:00:00 MDT
    Ceiling Wind Weather Visbility
    25,000ft 170° @ 5kt Showers in vicinity 6SM
    Clouds: Few @ 8,000ft, Broken @ 25,000ft
    Raw: KHDN 221120Z 2212/2312 08006KT P6SM BKN110 FM221700 27007KT P6SM SCT150 BKN200 FM221830 27014G24KT P6SM FEW080 SCT200 FM222200 27022G32KT P6SM FEW100 SCT200 FM230300 30007KT P6SM FEW100 SCT250 FM230600 17005KT P6SM VCSH FEW080 BKN250
Click/tap to add an annotation marker to the map
Direct links to live image URLs will be displayed inline on this page. URLs to separate webpages will be linked to.
URL:
Direct links to live image URLs will be displayed inline on this page. URLs to separate webpages will be linked to.
URL:
Remarks
  • Clsd to unsked acr opns with more than 30 psgr seats excp ppr; call unicom 970-819-1333.
  • Req all acft depg rwy 28 make rgt or left turnout as soon as safety permits after takeoff to avoid town of hayden & comply with noise abatement procs.
  • Large flocks of sandhill cranes around arpt in spring and fall.
  • All acft report 10 minutes prior to tkof/lndg on 123.0 - monitor freq 24 hrs, paew on rwy.
  • Possible severe winter conditions from oct-apr. check notams for arpt conditions. no arpt information nor snow removal guaranteed during hours of nonattendance.
  • Rwy 28 papi does not provide obst clearance beyond 4.0 nm from threshold.
  • Actvt malsf rwy 10; reil rwy 28; papi rwy 10; hirl rwy 10/28 - ctaf.
  • Landing fee for acft 12,500 lbs & over.
Comments
Leave a comment What was your experience like at this airport?